sensor_id;sensor_type;location;lat;lon;timestamp;P1;durP1;ratioP1;P2;durP2;ratioP2
6133;SDS011;3098;42.678;23.364;2022-10-22T00:01:31;17.60;;;8.77;;
6133;SDS011;3098;42.678;23.364;2022-10-22T00:03:58;13.73;;;6.90;;
6133;SDS011;3098;42.678;23.364;2022-10-22T00:06:25;19.42;;;7.40;;
6133;SDS011;3098;42.678;23.364;2022-10-22T00:08:52;14.25;;;6.68;;
6133;SDS011;3098;42.678;23.364;2022-10-22T00:11:20;19.65;;;7.47;;
6133;SDS011;3098;42.678;23.364;2022-10-22T00:13:48;11.25;;;5.82;;
6133;SDS011;3098;42.678;23.364;2022-10-22T00:16:18;15.95;;;5.60;;
6133;SDS011;3098;42.678;23.364;2022-10-22T00:18:45;16.02;;;7.03;;
6133;SDS011;3098;42.678;23.364;2022-10-22T00:21:12;10.60;;;6.23;;
6133;SDS011;3098;42.678;23.364;2022-10-22T00:23:40;10.33;;;6.70;;
6133;SDS011;3098;42.678;23.364;2022-10-22T00:26:09;26.17;;;6.97;;
6133;SDS011;3098;42.678;23.364;2022-10-22T00:28:37;8.07;;;4.30;;
6133;SDS011;3098;42.678;23.364;2022-10-22T00:31:05;12.75;;;5.43;;
6133;SDS011;3098;42.678;23.364;2022-10-22T00:33:34;11.48;;;5.32;;
6133;SDS011;3098;42.678;23.364;2022-10-22T00:36:01;11.63;;;6.20;;
6133;SDS011;3098;42.678;23.364;2022-10-22T00:38:28;13.73;;;5.68;;
6133;SDS011;3098;42.678;23.364;2022-10-22T00:40:55;13.40;;;5.70;;
6133;SDS011;3098;42.678;23.364;2022-10-22T00:43:24;14.67;;;6.43;;
6133;SDS011;3098;42.678;23.364;2022-10-22T00:45:53;9.23;;;5.10;;
6133;SDS011;3098;42.678;23.364;2022-10-22T00:48:21;12.77;;;6.20;;
6133;SDS011;3098;42.678;23.364;2022-10-22T00:50:55;10.90;;;5.17;;
6133;SDS011;3098;42.678;23.364;2022-10-22T00:53:25;11.77;;;5.65;;
6133;SDS011;3098;42.678;23.364;2022-10-22T00:55:57;9.57;;;4.77;;
6133;SDS011;3098;42.678;23.364;2022-10-22T00:58:25;12.43;;;6.28;;
6133;SDS011;3098;42.678;23.364;2022-10-22T01:00:56;18.60;;;6.20;;
6133;SDS011;3098;42.678;23.364;2022-10-22T01:03:24;21.92;;;6.82;;
6133;SDS011;3098;42.678;23.364;2022-10-22T01:05:53;9.85;;;5.18;;
6133;SDS011;3098;42.678;23.364;2022-10-22T01:08:26;30.23;;;6.68;;
6133;SDS011;3098;42.678;23.364;2022-10-22T01:11:05;15.27;;;6.78;;
6133;SDS011;3098;42.678;23.364;2022-10-22T01:13:43;12.93;;;5.72;;
6133;SDS011;3098;42.678;23.364;2022-10-22T01:16:21;11.53;;;6.00;;
6133;SDS011;3098;42.678;23.364;2022-10-22T01:18:57;22.07;;;6.27;;
6133;SDS011;3098;42.678;23.364;2022-10-22T01:21:38;15.20;;;6.65;;
6133;SDS011;3098;42.678;23.364;2022-10-22T01:24:17;13.97;;;5.37;;
6133;SDS011;3098;42.678;23.364;2022-10-22T01:27:08;9.77;;;6.03;;
6133;SDS011;3098;42.678;23.364;2022-10-22T01:29:48;18.00;;;5.57;;
6133;SDS011;3098;42.678;23.364;2022-10-22T01:32:19;10.40;;;5.32;;
6133;SDS011;3098;42.678;23.364;2022-10-22T01:34:51;13.27;;;5.97;;
6133;SDS011;3098;42.678;23.364;2022-10-22T01:37:23;9.52;;;5.15;;
6133;SDS011;3098;42.678;23.364;2022-10-22T01:39:54;15.68;;;6.93;;
6133;SDS011;3098;42.678;23.364;2022-10-22T01:42:23;12.85;;;5.90;;
6133;SDS011;3098;42.678;23.364;2022-10-22T01:44:52;17.50;;;5.13;;
6133;SDS011;3098;42.678;23.364;2022-10-22T01:47:22;16.00;;;5.60;;
6133;SDS011;3098;42.678;23.364;2022-10-22T01:50:08;8.97;;;5.57;;
6133;SDS011;3098;42.678;23.364;2022-10-22T01:52:56;20.97;;;5.70;;
6133;SDS011;3098;42.678;23.364;2022-10-22T01:55:56;13.13;;;5.83;;
6133;SDS011;3098;42.678;23.364;2022-10-22T01:58:36;20.30;;;6.30;;
6133;SDS011;3098;42.678;23.364;2022-10-22T02:01:14;15.63;;;6.25;;
6133;SDS011;3098;42.678;23.364;2022-10-22T02:03:47;11.57;;;5.43;;
6133;SDS011;3098;42.678;23.364;2022-10-22T02:06:21;9.32;;;5.93;;
6133;SDS011;3098;42.678;23.364;2022-10-22T02:08:52;16.93;;;6.27;;
6133;SDS011;3098;42.678;23.364;2022-10-22T02:11:21;10.27;;;5.40;;
6133;SDS011;3098;42.678;23.364;2022-10-22T02:13:50;10.47;;;5.97;;
6133;SDS011;3098;42.678;23.364;2022-10-22T02:16:23;12.43;;;4.77;;
6133;SDS011;3098;42.678;23.364;2022-10-22T02:18:54;13.60;;;4.93;;
6133;SDS011;3098;42.678;23.364;2022-10-22T02:21:23;16.67;;;6.33;;
6133;SDS011;3098;42.678;23.364;2022-10-22T02:23:51;14.18;;;5.57;;
6133;SDS011;3098;42.678;23.364;2022-10-22T02:26:21;12.90;;;5.50;;
6133;SDS011;3098;42.678;23.364;2022-10-22T02:28:55;14.30;;;5.57;;
6133;SDS011;3098;42.678;23.364;2022-10-22T02:31:31;18.57;;;7.73;;
6133;SDS011;3098;42.678;23.364;2022-10-22T02:34:02;10.20;;;5.63;;
6133;SDS011;3098;42.678;23.364;2022-10-22T02:36:34;14.45;;;5.78;;
6133;SDS011;3098;42.678;23.364;2022-10-22T02:39:03;22.70;;;5.17;;
6133;SDS011;3098;42.678;23.364;2022-10-22T02:41:32;10.47;;;5.30;;
6133;SDS011;3098;42.678;23.364;2022-10-22T02:44:00;12.30;;;6.20;;
6133;SDS011;3098;42.678;23.364;2022-10-22T02:46:28;14.33;;;6.37;;
6133;SDS011;3098;42.678;23.364;2022-10-22T02:48:57;18.70;;;4.87;;
6133;SDS011;3098;42.678;23.364;2022-10-22T02:51:25;12.17;;;5.87;;
6133;SDS011;3098;42.678;23.364;2022-10-22T02:53:52;15.30;;;6.57;;
6133;SDS011;3098;42.678;23.364;2022-10-22T02:56:19;25.97;;;10.50;;
6133;SDS011;3098;42.678;23.364;2022-10-22T02:58:47;15.47;;;7.00;;
6133;SDS011;3098;42.678;23.364;2022-10-22T03:01:15;14.53;;;5.90;;
6133;SDS011;3098;42.678;23.364;2022-10-22T03:03:44;7.80;;;4.37;;
6133;SDS011;3098;42.678;23.364;2022-10-22T03:06:11;8.93;;;4.23;;
6133;SDS011;3098;42.678;23.364;2022-10-22T03:08:40;14.45;;;6.47;;
6133;SDS011;3098;42.678;23.364;2022-10-22T03:11:07;10.63;;;4.70;;
6133;SDS011;3098;42.678;23.364;2022-10-22T03:13:35;12.83;;;6.10;;
6133;SDS011;3098;42.678;23.364;2022-10-22T03:16:03;30.67;;;4.80;;
6133;SDS011;3098;42.678;23.364;2022-10-22T03:18:31;10.90;;;4.40;;
6133;SDS011;3098;42.678;23.364;2022-10-22T03:21:03;8.53;;;4.47;;
6133;SDS011;3098;42.678;23.364;2022-10-22T03:23:35;11.90;;;5.00;;
6133;SDS011;3098;42.678;23.364;2022-10-22T03:26:03;11.73;;;5.10;;
6133;SDS011;3098;42.678;23.364;2022-10-22T03:28:31;12.07;;;5.13;;
6133;SDS011;3098;42.678;23.364;2022-10-22T03:30:59;8.80;;;4.27;;
6133;SDS011;3098;42.678;23.364;2022-10-22T03:33:27;11.97;;;5.10;;
6133;SDS011;3098;42.678;23.364;2022-10-22T03:35:54;10.70;;;5.07;;
6133;SDS011;3098;42.678;23.364;2022-10-22T03:38:24;7.53;;;3.90;;
6133;SDS011;3098;42.678;23.364;2022-10-22T03:40:52;8.73;;;4.43;;
6133;SDS011;3098;42.678;23.364;2022-10-22T03:43:20;7.77;;;3.90;;
6133;SDS011;3098;42.678;23.364;2022-10-22T03:45:47;10.85;;;5.55;;
6133;SDS011;3098;42.678;23.364;2022-10-22T03:48:14;8.20;;;4.87;;
6133;SDS011;3098;42.678;23.364;2022-10-22T03:50:41;10.00;;;6.07;;
6133;SDS011;3098;42.678;23.364;2022-10-22T03:53:08;9.23;;;4.55;;
6133;SDS011;3098;42.678;23.364;2022-10-22T03:55:39;15.90;;;5.40;;
6133;SDS011;3098;42.678;23.364;2022-10-22T03:58:07;13.13;;;5.10;;
6133;SDS011;3098;42.678;23.364;2022-10-22T04:00:36;8.63;;;4.47;;
6133;SDS011;3098;42.678;23.364;2022-10-22T04:03:04;10.43;;;4.43;;
6133;SDS011;3098;42.678;23.364;2022-10-22T04:05:32;10.47;;;4.90;;
6133;SDS011;3098;42.678;23.364;2022-10-22T04:08:01;7.80;;;5.23;;
6133;SDS011;3098;42.678;23.364;2022-10-22T04:10:29;14.53;;;5.00;;
6133;SDS011;3098;42.678;23.364;2022-10-22T04:12:58;11.77;;;5.23;;
6133;SDS011;3098;42.678;23.364;2022-10-22T04:15:25;9.33;;;5.13;;
6133;SDS011;3098;42.678;23.364;2022-10-22T04:17:53;15.97;;;5.70;;
6133;SDS011;3098;42.678;23.364;2022-10-22T04:20:20;11.63;;;4.67;;
6133;SDS011;3098;42.678;23.364;2022-10-22T04:22:48;24.33;;;5.57;;
6133;SDS011;3098;42.678;23.364;2022-10-22T04:25:15;13.82;;;5.47;;
6133;SDS011;3098;42.678;23.364;2022-10-22T04:27:42;12.33;;;5.30;;
6133;SDS011;3098;42.678;23.364;2022-10-22T04:30:12;13.40;;;4.70;;
6133;SDS011;3098;42.678;23.364;2022-10-22T04:32:39;9.37;;;5.07;;
6133;SDS011;3098;42.678;23.364;2022-10-22T04:35:07;9.60;;;5.27;;
6133;SDS011;3098;42.678;23.364;2022-10-22T04:37:35;11.43;;;5.40;;
6133;SDS011;3098;42.678;23.364;2022-10-22T04:40:03;18.77;;;6.47;;
6133;SDS011;3098;42.678;23.364;2022-10-22T04:42:31;14.77;;;7.33;;
6133;SDS011;3098;42.678;23.364;2022-10-22T04:44:58;8.20;;;4.33;;
6133;SDS011;3098;42.678;23.364;2022-10-22T04:47:26;13.87;;;6.93;;
6133;SDS011;3098;42.678;23.364;2022-10-22T04:49:54;15.50;;;5.83;;
6133;SDS011;3098;42.678;23.364;2022-10-22T04:52:21;13.80;;;6.55;;
6133;SDS011;3098;42.678;23.364;2022-10-22T04:54:48;13.63;;;5.75;;
6133;SDS011;3098;42.678;23.364;2022-10-22T04:57:16;11.73;;;6.03;;
6133;SDS011;3098;42.678;23.364;2022-10-22T04:59:43;13.80;;;6.40;;
6133;SDS011;3098;42.678;23.364;2022-10-22T05:02:10;18.77;;;6.57;;
6133;SDS011;3098;42.678;23.364;2022-10-22T05:04:39;12.20;;;5.07;;
6133;SDS011;3098;42.678;23.364;2022-10-22T05:07:07;15.20;;;6.20;;
6133;SDS011;3098;42.678;23.364;2022-10-22T05:09:34;13.48;;;5.47;;
6133;SDS011;3098;42.678;23.364;2022-10-22T05:12:01;14.40;;;6.10;;
6133;SDS011;3098;42.678;23.364;2022-10-22T05:14:30;12.40;;;5.97;;
6133;SDS011;3098;42.678;23.364;2022-10-22T05:16:57;12.25;;;5.50;;
6133;SDS011;3098;42.678;23.364;2022-10-22T05:19:26;12.18;;;4.93;;
6133;SDS011;3098;42.678;23.364;2022-10-22T05:21:59;9.00;;;5.43;;
6133;SDS011;3098;42.678;23.364;2022-10-22T05:24:32;17.77;;;7.03;;
6133;SDS011;3098;42.678;23.364;2022-10-22T05:27:01;10.03;;;5.60;;
6133;SDS011;3098;42.678;23.364;2022-10-22T05:29:32;9.27;;;4.35;;
6133;SDS011;3098;42.678;23.364;2022-10-22T05:32:00;13.93;;;6.68;;
6133;SDS011;3098;42.678;23.364;2022-10-22T05:34:27;13.93;;;5.95;;
6133;SDS011;3098;42.678;23.364;2022-10-22T05:36:54;9.38;;;5.00;;
6133;SDS011;3098;42.678;23.364;2022-10-22T05:39:24;9.82;;;4.80;;
6133;SDS011;3098;42.678;23.364;2022-10-22T05:41:51;8.32;;;4.82;;
6133;SDS011;3098;42.678;23.364;2022-10-22T05:44:19;10.15;;;5.18;;
6133;SDS011;3098;42.678;23.364;2022-10-22T05:46:51;9.15;;;5.07;;
6133;SDS011;3098;42.678;23.364;2022-10-22T05:49:18;10.27;;;3.35;;
6133;SDS011;3098;42.678;23.364;2022-10-22T05:51:46;9.07;;;3.92;;
6133;SDS011;3098;42.678;23.364;2022-10-22T05:54:15;25.23;;;5.93;;
6133;SDS011;3098;42.678;23.364;2022-10-22T05:56:45;10.32;;;5.05;;
6133;SDS011;3098;42.678;23.364;2022-10-22T05:59:12;14.02;;;5.22;;
6133;SDS011;3098;42.678;23.364;2022-10-22T06:01:39;14.45;;;5.25;;
6133;SDS011;3098;42.678;23.364;2022-10-22T06:04:09;7.60;;;4.32;;
6133;SDS011;3098;42.678;23.364;2022-10-22T06:06:42;11.23;;;5.50;;
6133;SDS011;3098;42.678;23.364;2022-10-22T06:09:15;9.30;;;4.97;;
6133;SDS011;3098;42.678;23.364;2022-10-22T06:11:47;15.35;;;4.68;;
6133;SDS011;3098;42.678;23.364;2022-10-22T06:14:17;12.70;;;3.90;;
6133;SDS011;3098;42.678;23.364;2022-10-22T06:16:46;9.65;;;5.35;;
6133;SDS011;3098;42.678;23.364;2022-10-22T06:19:14;18.67;;;5.60;;
6133;SDS011;3098;42.678;23.364;2022-10-22T06:21:44;10.60;;;5.25;;
6133;SDS011;3098;42.678;23.364;2022-10-22T06:24:15;13.10;;;4.70;;
6133;SDS011;3098;42.678;23.364;2022-10-22T06:26:52;12.63;;;6.05;;
6133;SDS011;3098;42.678;23.364;2022-10-22T06:29:19;14.05;;;5.43;;
6133;SDS011;3098;42.678;23.364;2022-10-22T06:31:46;13.32;;;6.50;;
6133;SDS011;3098;42.678;23.364;2022-10-22T06:34:14;10.43;;;5.95;;
6133;SDS011;3098;42.678;23.364;2022-10-22T06:36:43;20.65;;;6.45;;
6133;SDS011;3098;42.678;23.364;2022-10-22T06:39:12;14.32;;;6.88;;
6133;SDS011;3098;42.678;23.364;2022-10-22T06:41:45;9.95;;;6.18;;
6133;SDS011;3098;42.678;23.364;2022-10-22T06:44:16;13.23;;;7.00;;
6133;SDS011;3098;42.678;23.364;2022-10-22T06:46:44;12.63;;;6.93;;
6133;SDS011;3098;42.678;23.364;2022-10-22T06:49:15;18.40;;;7.47;;
6133;SDS011;3098;42.678;23.364;2022-10-22T06:51:43;13.38;;;7.43;;
6133;SDS011;3098;42.678;23.364;2022-10-22T06:54:15;22.08;;;7.72;;
6133;SDS011;3098;42.678;23.364;2022-10-22T06:56:42;21.70;;;7.78;;
6133;SDS011;3098;42.678;23.364;2022-10-22T06:59:11;13.90;;;7.43;;
6133;SDS011;3098;42.678;23.364;2022-10-22T07:01:39;16.45;;;8.52;;
6133;SDS011;3098;42.678;23.364;2022-10-22T07:04:09;19.38;;;7.38;;
6133;SDS011;3098;42.678;23.364;2022-10-22T07:06:36;20.33;;;8.20;;
6133;SDS011;3098;42.678;23.364;2022-10-22T07:09:03;26.13;;;7.53;;
6133;SDS011;3098;42.678;23.364;2022-10-22T07:11:35;17.27;;;7.07;;
6133;SDS011;3098;42.678;23.364;2022-10-22T07:14:14;23.10;;;8.25;;
6133;SDS011;3098;42.678;23.364;2022-10-22T07:16:47;19.60;;;8.57;;
6133;SDS011;3098;42.678;23.364;2022-10-22T07:19:17;19.17;;;8.27;;
6133;SDS011;3098;42.678;23.364;2022-10-22T07:21:44;13.38;;;7.07;;
6133;SDS011;3098;42.678;23.364;2022-10-22T07:24:11;23.52;;;8.93;;
6133;SDS011;3098;42.678;23.364;2022-10-22T07:26:40;17.38;;;8.05;;
6133;SDS011;3098;42.678;23.364;2022-10-22T07:29:10;18.40;;;8.60;;
6133;SDS011;3098;42.678;23.364;2022-10-22T07:31:39;20.90;;;8.38;;
6133;SDS011;3098;42.678;23.364;2022-10-22T07:34:08;17.63;;;8.20;;
6133;SDS011;3098;42.678;23.364;2022-10-22T07:36:40;21.85;;;8.75;;
6133;SDS011;3098;42.678;23.364;2022-10-22T07:39:14;17.80;;;7.78;;
6133;SDS011;3098;42.678;23.364;2022-10-22T07:41:41;16.30;;;7.05;;
6133;SDS011;3098;42.678;23.364;2022-10-22T07:44:09;16.45;;;6.70;;
6133;SDS011;3098;42.678;23.364;2022-10-22T07:46:37;22.60;;;9.13;;
6133;SDS011;3098;42.678;23.364;2022-10-22T07:49:06;24.80;;;9.82;;
6133;SDS011;3098;42.678;23.364;2022-10-22T07:51:35;21.08;;;10.02;;
6133;SDS011;3098;42.678;23.364;2022-10-22T07:54:03;22.52;;;10.27;;
6133;SDS011;3098;42.678;23.364;2022-10-22T07:56:30;25.05;;;11.05;;
6133;SDS011;3098;42.678;23.364;2022-10-22T07:58:57;25.02;;;12.25;;
6133;SDS011;3098;42.678;23.364;2022-10-22T08:01:24;23.35;;;9.98;;
6133;SDS011;3098;42.678;23.364;2022-10-22T08:03:52;23.20;;;10.10;;
6133;SDS011;3098;42.678;23.364;2022-10-22T08:06:20;23.17;;;10.73;;
6133;SDS011;3098;42.678;23.364;2022-10-22T08:08:50;27.55;;;11.43;;
6133;SDS011;3098;42.678;23.364;2022-10-22T08:11:18;19.23;;;9.40;;
6133;SDS011;3098;42.678;23.364;2022-10-22T08:13:46;19.88;;;8.35;;
6133;SDS011;3098;42.678;23.364;2022-10-22T08:16:13;23.73;;;10.13;;
6133;SDS011;3098;42.678;23.364;2022-10-22T08:18:41;23.55;;;9.55;;
6133;SDS011;3098;42.678;23.364;2022-10-22T08:21:08;23.90;;;10.45;;
6133;SDS011;3098;42.678;23.364;2022-10-22T08:23:36;19.48;;;10.50;;
6133;SDS011;3098;42.678;23.364;2022-10-22T08:26:05;22.00;;;9.85;;
6133;SDS011;3098;42.678;23.364;2022-10-22T08:28:33;26.60;;;10.43;;
6133;SDS011;3098;42.678;23.364;2022-10-22T08:31:01;25.77;;;11.40;;
6133;SDS011;3098;42.678;23.364;2022-10-22T08:33:29;16.35;;;8.75;;
6133;SDS011;3098;42.678;23.364;2022-10-22T08:35:57;20.48;;;9.20;;
6133;SDS011;3098;42.678;23.364;2022-10-22T08:38:24;20.02;;;9.57;;
6133;SDS011;3098;42.678;23.364;2022-10-22T08:40:52;24.10;;;10.25;;
6133;SDS011;3098;42.678;23.364;2022-10-22T08:43:35;16.27;;;8.05;;
6133;SDS011;3098;42.678;23.364;2022-10-22T08:46:23;23.63;;;9.00;;
6133;SDS011;3098;42.678;23.364;2022-10-22T08:49:04;16.75;;;8.55;;
6133;SDS011;3098;42.678;23.364;2022-10-22T08:51:38;21.52;;;10.00;;
6133;SDS011;3098;42.678;23.364;2022-10-22T08:57:05;21.80;;;9.38;;
6133;SDS011;3098;42.678;23.364;2022-10-22T08:59:47;20.63;;;10.05;;
6133;SDS011;3098;42.678;23.364;2022-10-22T09:02:21;18.55;;;8.30;;
6133;SDS011;3098;42.678;23.364;2022-10-22T09:05:02;16.20;;;8.02;;
6133;SDS011;3098;42.678;23.364;2022-10-22T09:07:41;16.38;;;8.27;;
6133;SDS011;3098;42.678;23.364;2022-10-22T09:10:14;13.68;;;7.18;;
6133;SDS011;3098;42.678;23.364;2022-10-22T09:12:42;20.17;;;11.20;;
6133;SDS011;3098;42.678;23.364;2022-10-22T09:15:13;14.15;;;7.43;;
6133;SDS011;3098;42.678;23.364;2022-10-22T09:17:44;11.55;;;6.32;;
6133;SDS011;3098;42.678;23.364;2022-10-22T09:20:24;13.93;;;6.88;;
6133;SDS011;3098;42.678;23.364;2022-10-22T09:22:56;19.50;;;6.68;;
6133;SDS011;3098;42.678;23.364;2022-10-22T09:25:32;15.80;;;6.57;;
6133;SDS011;3098;42.678;23.364;2022-10-22T09:28:03;15.18;;;6.88;;
6133;SDS011;3098;42.678;23.364;2022-10-22T09:30:34;12.10;;;6.55;;
6133;SDS011;3098;42.678;23.364;2022-10-22T09:33:06;13.73;;;6.35;;
6133;SDS011;3098;42.678;23.364;2022-10-22T09:35:45;10.98;;;6.22;;
6133;SDS011;3098;42.678;23.364;2022-10-22T09:38:15;14.30;;;6.10;;
6133;SDS011;3098;42.678;23.364;2022-10-22T09:40:45;15.63;;;6.93;;
6133;SDS011;3098;42.678;23.364;2022-10-22T09:43:14;13.52;;;7.15;;
6133;SDS011;3098;42.678;23.364;2022-10-22T09:45:44;17.15;;;6.88;;
6133;SDS011;3098;42.678;23.364;2022-10-22T09:48:16;12.80;;;6.65;;
6133;SDS011;3098;42.678;23.364;2022-10-22T09:50:47;15.73;;;7.50;;
6133;SDS011;3098;42.678;23.364;2022-10-22T09:53:17;16.65;;;7.05;;
6133;SDS011;3098;42.678;23.364;2022-10-22T09:55:51;13.50;;;6.10;;
6133;SDS011;3098;42.678;23.364;2022-10-22T09:58:19;14.05;;;6.80;;
6133;SDS011;3098;42.678;23.364;2022-10-22T10:00:52;17.40;;;6.70;;
6133;SDS011;3098;42.678;23.364;2022-10-22T10:03:21;14.40;;;6.97;;
6133;SDS011;3098;42.678;23.364;2022-10-22T10:05:51;11.90;;;6.22;;
6133;SDS011;3098;42.678;23.364;2022-10-22T10:08:21;12.20;;;6.35;;
6133;SDS011;3098;42.678;23.364;2022-10-22T10:10:50;14.75;;;6.63;;
6133;SDS011;3098;42.678;23.364;2022-10-22T10:13:23;12.35;;;6.00;;
6133;SDS011;3098;42.678;23.364;2022-10-22T10:16:28;12.75;;;6.50;;
6133;SDS011;3098;42.678;23.364;2022-10-22T10:19:08;13.60;;;6.75;;
6133;SDS011;3098;42.678;23.364;2022-10-22T10:21:47;11.00;;;5.90;;
6133;SDS011;3098;42.678;23.364;2022-10-22T10:24:22;15.02;;;6.10;;
6133;SDS011;3098;42.678;23.364;2022-10-22T10:26:58;18.27;;;6.28;;
6133;SDS011;3098;42.678;23.364;2022-10-22T10:29:35;10.00;;;5.80;;
6133;SDS011;3098;42.678;23.364;2022-10-22T10:32:19;15.30;;;5.15;;
6133;SDS011;3098;42.678;23.364;2022-10-22T10:34:58;17.73;;;6.07;;
6133;SDS011;3098;42.678;23.364;2022-10-22T10:37:41;14.00;;;6.35;;
6133;SDS011;3098;42.678;23.364;2022-10-22T10:40:17;10.45;;;5.60;;
6133;SDS011;3098;42.678;23.364;2022-10-22T10:42:54;9.60;;;5.50;;
6133;SDS011;3098;42.678;23.364;2022-10-22T10:45:29;12.80;;;5.78;;
6133;SDS011;3098;42.678;23.364;2022-10-22T10:51:06;13.40;;;6.30;;
6133;SDS011;3098;42.678;23.364;2022-10-22T10:53:45;18.42;;;6.28;;
6133;SDS011;3098;42.678;23.364;2022-10-22T10:56:24;12.90;;;5.97;;
6133;SDS011;3098;42.678;23.364;2022-10-22T10:59:04;11.48;;;5.28;;
6133;SDS011;3098;42.678;23.364;2022-10-22T11:01:41;9.85;;;6.18;;
6133;SDS011;3098;42.678;23.364;2022-10-22T11:07:33;13.15;;;6.25;;
6133;SDS011;3098;42.678;23.364;2022-10-22T11:10:08;11.00;;;6.05;;
6133;SDS011;3098;42.678;23.364;2022-10-22T11:12:43;11.48;;;6.00;;
6133;SDS011;3098;42.678;23.364;2022-10-22T11:15:19;18.98;;;6.97;;
6133;SDS011;3098;42.678;23.364;2022-10-22T11:17:53;16.08;;;7.22;;
6133;SDS011;3098;42.678;23.364;2022-10-22T11:20:31;21.50;;;6.32;;
6133;SDS011;3098;42.678;23.364;2022-10-22T11:23:17;10.82;;;6.03;;
6133;SDS011;3098;42.678;23.364;2022-10-22T11:25:54;10.27;;;5.35;;
6133;SDS011;3098;42.678;23.364;2022-10-22T11:28:23;12.73;;;6.22;;
6133;SDS011;3098;42.678;23.364;2022-10-22T11:30:55;10.20;;;5.97;;
6133;SDS011;3098;42.678;23.364;2022-10-22T11:33:26;9.95;;;5.55;;
6133;SDS011;3098;42.678;23.364;2022-10-22T11:36:01;12.20;;;6.00;;
6133;SDS011;3098;42.678;23.364;2022-10-22T11:38:32;11.73;;;5.82;;
6133;SDS011;3098;42.678;23.364;2022-10-22T11:41:01;10.18;;;5.72;;
6133;SDS011;3098;42.678;23.364;2022-10-22T11:43:32;20.95;;;5.75;;
6133;SDS011;3098;42.678;23.364;2022-10-22T11:46:07;15.88;;;5.90;;
6133;SDS011;3098;42.678;23.364;2022-10-22T11:49:00;9.10;;;5.32;;
6133;SDS011;3098;42.678;23.364;2022-10-22T11:51:35;9.82;;;5.45;;
6133;SDS011;3098;42.678;23.364;2022-10-22T11:54:25;14.00;;;6.00;;
6133;SDS011;3098;42.678;23.364;2022-10-22T11:56:57;10.45;;;5.85;;
6133;SDS011;3098;42.678;23.364;2022-10-22T11:59:44;9.88;;;5.35;;
6133;SDS011;3098;42.678;23.364;2022-10-22T12:02:23;8.60;;;5.03;;
6133;SDS011;3098;42.678;23.364;2022-10-22T12:05:17;13.65;;;5.22;;
6133;SDS011;3098;42.678;23.364;2022-10-22T12:08:02;9.45;;;5.55;;
6133;SDS011;3098;42.678;23.364;2022-10-22T12:13:55;11.48;;;5.82;;
6133;SDS011;3098;42.678;23.364;2022-10-22T12:16:38;11.65;;;5.10;;
6133;SDS011;3098;42.678;23.364;2022-10-22T12:19:11;11.73;;;6.18;;
6133;SDS011;3098;42.678;23.364;2022-10-22T12:21:41;10.80;;;4.63;;
6133;SDS011;3098;42.678;23.364;2022-10-22T12:24:13;15.02;;;5.55;;
6133;SDS011;3098;42.678;23.364;2022-10-22T12:26:42;8.30;;;4.65;;
6133;SDS011;3098;42.678;23.364;2022-10-22T12:29:11;8.90;;;4.43;;
6133;SDS011;3098;42.678;23.364;2022-10-22T12:31:39;17.00;;;5.22;;
6133;SDS011;3098;42.678;23.364;2022-10-22T12:34:11;10.65;;;5.38;;
6133;SDS011;3098;42.678;23.364;2022-10-22T12:36:40;9.27;;;4.80;;
6133;SDS011;3098;42.678;23.364;2022-10-22T12:39:10;9.82;;;5.35;;
6133;SDS011;3098;42.678;23.364;2022-10-22T12:41:40;8.90;;;4.70;;
6133;SDS011;3098;42.678;23.364;2022-10-22T12:44:09;8.85;;;4.72;;
6133;SDS011;3098;42.678;23.364;2022-10-22T12:46:39;10.60;;;4.32;;
6133;SDS011;3098;42.678;23.364;2022-10-22T12:49:10;14.10;;;5.30;;
6133;SDS011;3098;42.678;23.364;2022-10-22T12:51:42;10.60;;;4.72;;
6133;SDS011;3098;42.678;23.364;2022-10-22T12:54:17;7.72;;;4.20;;
6133;SDS011;3098;42.678;23.364;2022-10-22T12:56:49;7.28;;;4.18;;
6133;SDS011;3098;42.678;23.364;2022-10-22T12:59:19;8.80;;;4.32;;
6133;SDS011;3098;42.678;23.364;2022-10-22T13:01:50;8.80;;;4.88;;
6133;SDS011;3098;42.678;23.364;2022-10-22T13:04:29;9.15;;;3.97;;
6133;SDS011;3098;42.678;23.364;2022-10-22T13:07:05;5.95;;;3.55;;
6133;SDS011;3098;42.678;23.364;2022-10-22T13:09:44;6.53;;;3.85;;
6133;SDS011;3098;42.678;23.364;2022-10-22T13:12:13;8.18;;;3.95;;
6133;SDS011;3098;42.678;23.364;2022-10-22T13:14:43;8.25;;;4.22;;
6133;SDS011;3098;42.678;23.364;2022-10-22T13:17:13;10.55;;;4.70;;
6133;SDS011;3098;42.678;23.364;2022-10-22T13:19:46;6.00;;;3.63;;
6133;SDS011;3098;42.678;23.364;2022-10-22T13:22:25;9.10;;;4.45;;
6133;SDS011;3098;42.678;23.364;2022-10-22T13:24:56;10.00;;;4.63;;
6133;SDS011;3098;42.678;23.364;2022-10-22T13:27:26;5.93;;;3.55;;
6133;SDS011;3098;42.678;23.364;2022-10-22T13:29:54;9.82;;;4.30;;
6133;SDS011;3098;42.678;23.364;2022-10-22T13:32:26;8.13;;;4.45;;
6133;SDS011;3098;42.678;23.364;2022-10-22T13:34:56;9.30;;;4.30;;
6133;SDS011;3098;42.678;23.364;2022-10-22T13:37:26;6.55;;;3.70;;
6133;SDS011;3098;42.678;23.364;2022-10-22T13:40:03;9.80;;;4.10;;
6133;SDS011;3098;42.678;23.364;2022-10-22T13:42:36;7.15;;;3.88;;
6133;SDS011;3098;42.678;23.364;2022-10-22T13:45:04;9.15;;;4.47;;
6133;SDS011;3098;42.678;23.364;2022-10-22T13:47:32;9.55;;;4.53;;
6133;SDS011;3098;42.678;23.364;2022-10-22T13:50:01;15.55;;;4.03;;
6133;SDS011;3098;42.678;23.364;2022-10-22T13:52:33;10.93;;;4.70;;
6133;SDS011;3098;42.678;23.364;2022-10-22T13:55:11;10.88;;;4.35;;
6133;SDS011;3098;42.678;23.364;2022-10-22T13:57:40;9.57;;;3.75;;
6133;SDS011;3098;42.678;23.364;2022-10-22T14:00:09;9.35;;;4.50;;
6133;SDS011;3098;42.678;23.364;2022-10-22T14:02:39;16.77;;;4.55;;
6133;SDS011;3098;42.678;23.364;2022-10-22T14:05:06;14.90;;;4.38;;
6133;SDS011;3098;42.678;23.364;2022-10-22T14:07:35;6.85;;;4.13;;
6133;SDS011;3098;42.678;23.364;2022-10-22T14:10:13;11.65;;;4.13;;
6133;SDS011;3098;42.678;23.364;2022-10-22T14:12:42;7.50;;;3.47;;
6133;SDS011;3098;42.678;23.364;2022-10-22T14:15:10;6.30;;;3.67;;
6133;SDS011;3098;42.678;23.364;2022-10-22T14:17:40;7.07;;;4.28;;
6133;SDS011;3098;42.678;23.364;2022-10-22T14:20:13;9.30;;;4.60;;
6133;SDS011;3098;42.678;23.364;2022-10-22T14:22:43;10.48;;;4.57;;
6133;SDS011;3098;42.678;23.364;2022-10-22T14:25:14;15.45;;;4.70;;
6133;SDS011;3098;42.678;23.364;2022-10-22T14:27:42;10.77;;;4.40;;
6133;SDS011;3098;42.678;23.364;2022-10-22T14:30:12;6.60;;;3.78;;
6133;SDS011;3098;42.678;23.364;2022-10-22T14:32:41;9.32;;;4.57;;
6133;SDS011;3098;42.678;23.364;2022-10-22T14:35:09;17.85;;;5.53;;
6133;SDS011;3098;42.678;23.364;2022-10-22T14:37:38;11.88;;;4.75;;
6133;SDS011;3098;42.678;23.364;2022-10-22T14:40:07;7.78;;;4.00;;
6133;SDS011;3098;42.678;23.364;2022-10-22T14:42:40;10.73;;;4.80;;
6133;SDS011;3098;42.678;23.364;2022-10-22T14:45:11;12.98;;;4.20;;
6133;SDS011;3098;42.678;23.364;2022-10-22T14:47:41;7.00;;;3.63;;
6133;SDS011;3098;42.678;23.364;2022-10-22T14:50:09;9.75;;;4.13;;
6133;SDS011;3098;42.678;23.364;2022-10-22T14:52:38;8.48;;;4.38;;
6133;SDS011;3098;42.678;23.364;2022-10-22T14:55:07;10.15;;;4.47;;
6133;SDS011;3098;42.678;23.364;2022-10-22T14:57:36;7.32;;;3.72;;
6133;SDS011;3098;42.678;23.364;2022-10-22T15:00:07;10.32;;;3.92;;
6133;SDS011;3098;42.678;23.364;2022-10-22T15:02:37;6.72;;;3.97;;
6133;SDS011;3098;42.678;23.364;2022-10-22T15:05:04;9.18;;;4.00;;
6133;SDS011;3098;42.678;23.364;2022-10-22T15:07:33;6.22;;;4.03;;
6133;SDS011;3098;42.678;23.364;2022-10-22T15:10:01;7.80;;;4.20;;
6133;SDS011;3098;42.678;23.364;2022-10-22T15:12:28;13.50;;;5.00;;
6133;SDS011;3098;42.678;23.364;2022-10-22T15:14:55;9.32;;;4.10;;
6133;SDS011;3098;42.678;23.364;2022-10-22T15:17:24;9.10;;;4.28;;
6133;SDS011;3098;42.678;23.364;2022-10-22T15:19:52;10.45;;;4.57;;
6133;SDS011;3098;42.678;23.364;2022-10-22T15:22:20;9.90;;;4.20;;
6133;SDS011;3098;42.678;23.364;2022-10-22T15:24:49;8.35;;;3.88;;
6133;SDS011;3098;42.678;23.364;2022-10-22T15:27:17;6.82;;;4.25;;